sensor_id;sensor_type;location;lat;lon;timestamp;temperature;humidity
6903;DHT22;20232;49.408;8.702;2023-02-21T05:01:38;5.40;99.90
6903;DHT22;20232;49.408;8.702;2023-02-21T05:04:04;5.40;99.90
6903;DHT22;20232;49.408;8.702;2023-02-21T05:06:30;5.30;99.90
6903;DHT22;20232;49.408;8.702;2023-02-21T05:08:57;5.30;99.90
6903;DHT22;20232;49.408;8.702;2023-02-21T05:11:23;5.20;99.90
6903;DHT22;20232;49.408;8.702;2023-02-21T05:13:49;5.30;99.90
6903;DHT22;20232;49.408;8.702;2023-02-21T05:16:14;5.30;99.90
6903;DHT22;20232;49.408;8.702;2023-02-21T05:18:41;5.20;99.90
6903;DHT22;20232;49.408;8.702;2023-02-21T05:21:07;5.20;99.90
6903;DHT22;20232;49.408;8.702;2023-02-21T05:23:34;5.20;99.90
6903;DHT22;20232;49.408;8.702;2023-02-21T05:26:05;5.20;99.90
6903;DHT22;20232;49.408;8.702;2023-02-21T05:28:31;5.10;99.90
6903;DHT22;20232;49.408;8.702;2023-02-21T05:30:57;5.10;99.90
6903;DHT22;20232;49.408;8.702;2023-02-21T05:33:23;5.10;99.90
6903;DHT22;20232;49.408;8.702;2023-02-21T05:35:49;5.10;99.90
6903;DHT22;20232;49.408;8.702;2023-02-21T05:38:16;5.10;99.90
6903;DHT22;20232;49.408;8.702;2023-02-21T05:40:42;5.10;99.90
6903;DHT22;20232;49.408;8.702;2023-02-21T05:43:08;5.10;99.90
6903;DHT22;20232;49.408;8.702;2023-02-21T05:45:33;5.10;99.90
6903;DHT22;20232;49.408;8.702;2023-02-21T05:47:59;5.10;99.90
6903;DHT22;20232;49.408;8.702;2023-02-21T05:50:27;5.10;99.90
6903;DHT22;20232;49.408;8.702;2023-02-21T05:52:53;5.00;99.90
6903;DHT22;20232;49.408;8.702;2023-02-21T05:55:19;5.00;99.90
6903;DHT22;20232;49.408;8.702;2023-02-21T05:57:44;5.00;99.90
6903;DHT22;20232;49.408;8.702;2023-02-21T06:00:19;5.00;99.90
6903;DHT22;20232;49.408;8.702;2023-02-21T06:02:45;4.90;99.90
6903;DHT22;20232;49.408;8.702;2023-02-21T06:05:11;4.90;99.90
6903;DHT22;20232;49.408;8.702;2023-02-21T06:07:37;4.80;99.90
6903;DHT22;20232;49.408;8.702;2023-02-21T06:10:03;4.80;99.90
6903;DHT22;20232;49.408;8.702;2023-02-21T06:12:29;4.80;99.90
6903;DHT22;20232;49.408;8.702;2023-02-21T06:14:55;4.80;99.90
6903;DHT22;20232;49.408;8.702;2023-02-21T06:17:20;4.80;99.90
6903;DHT22;20232;49.408;8.702;2023-02-21T06:19:46;4.80;99.90
6903;DHT22;20232;49.408;8.702;2023-02-21T06:22:11;4.80;99.90
6903;DHT22;20232;49.408;8.702;2023-02-21T06:24:37;4.90;99.90
6903;DHT22;20232;49.408;8.702;2023-02-21T06:27:03;4.90;99.90
6903;DHT22;20232;49.408;8.702;2023-02-21T06:29:28;5.00;99.90
6903;DHT22;20232;49.408;8.702;2023-02-21T06:31:58;4.90;99.90
6903;DHT22;20232;49.408;8.702;2023-02-21T06:34:24;4.90;99.90
6903;DHT22;20232;49.408;8.702;2023-02-21T06:36:56;4.80;99.90
6903;DHT22;20232;49.408;8.702;2023-02-21T06:39:22;4.90;99.90
6903;DHT22;20232;49.408;8.702;2023-02-21T06:41:50;5.00;99.90
6903;DHT22;20232;49.408;8.702;2023-02-21T06:44:17;5.00;99.90
6903;DHT22;20232;49.408;8.702;2023-02-21T06:46:43;5.10;99.90
6903;DHT22;20232;49.408;8.702;2023-02-21T06:49:09;5.00;99.90
6903;DHT22;20232;49.408;8.702;2023-02-21T06:51:36;4.90;99.90
6903;DHT22;20232;49.408;8.702;2023-02-21T06:54:03;4.90;99.90
6903;DHT22;20232;49.408;8.702;2023-02-21T06:56:28;4.90;99.90
6903;DHT22;20232;49.408;8.702;2023-02-21T06:58:54;4.90;99.90
6903;DHT22;20232;49.408;8.702;2023-02-21T07:01:20;4.80;99.90
6903;DHT22;20232;49.408;8.702;2023-02-21T07:03:47;4.80;99.90
6903;DHT22;20232;49.408;8.702;2023-02-21T07:06:12;4.70;99.90
6903;DHT22;20232;49.408;8.702;2023-02-21T07:08:38;4.70;99.90
6903;DHT22;20232;49.408;8.702;2023-02-21T07:11:04;4.70;99.90
6903;DHT22;20232;49.408;8.702;2023-02-21T07:13:30;4.70;99.90
6903;DHT22;20232;49.408;8.702;2023-02-21T07:15:56;4.70;99.90
6903;DHT22;20232;49.408;8.702;2023-02-21T07:18:21;4.80;99.90
6903;DHT22;20232;49.408;8.702;2023-02-21T07:20:47;4.80;99.90
6903;DHT22;20232;49.408;8.702;2023-02-21T07:23:14;4.90;99.90
6903;DHT22;20232;49.408;8.702;2023-02-21T07:25:39;4.90;99.90
6903;DHT22;20232;49.408;8.702;2023-02-21T07:28:05;4.90;99.90
6903;DHT22;20232;49.408;8.702;2023-02-21T07:30:30;4.90;99.90
6903;DHT22;20232;49.408;8.702;2023-02-21T07:32:57;5.00;99.90
6903;DHT22;20232;49.408;8.702;2023-02-21T07:35:22;5.00;99.90
6903;DHT22;20232;49.408;8.702;2023-02-21T07:37:48;5.10;99.90
6903;DHT22;20232;49.408;8.702;2023-02-21T07:40:13;5.10;99.90
6903;DHT22;20232;49.408;8.702;2023-02-21T07:42:42;5.20;99.90
6903;DHT22;20232;49.408;8.702;2023-02-21T07:45:08;5.10;99.90
6903;DHT22;20232;49.408;8.702;2023-02-21T07:47:34;5.10;99.90
6903;DHT22;20232;49.408;8.702;2023-02-21T07:50:00;5.20;99.90
6903;DHT22;20232;49.408;8.702;2023-02-21T07:52:25;5.20;99.90
6903;DHT22;20232;49.408;8.702;2023-02-21T07:54:51;5.20;99.90
6903;DHT22;20232;49.408;8.702;2023-02-21T07:57:17;5.30;99.90
6903;DHT22;20232;49.408;8.702;2023-02-21T07:59:43;5.30;99.90
6903;DHT22;20232;49.408;8.702;2023-02-21T08:02:10;5.30;99.90
6903;DHT22;20232;49.408;8.702;2023-02-21T08:04:36;5.30;99.90
6903;DHT22;20232;49.408;8.702;2023-02-21T08:07:02;5.40;99.90
6903;DHT22;20232;49.408;8.702;2023-02-21T08:09:29;5.40;99.90
6903;DHT22;20232;49.408;8.702;2023-02-21T08:11:55;5.40;99.90
6903;DHT22;20232;49.408;8.702;2023-02-21T08:14:21;5.50;99.90
6903;DHT22;20232;49.408;8.702;2023-02-21T08:16:46;5.60;99.90
6903;DHT22;20232;49.408;8.702;2023-02-21T08:19:12;5.70;99.90
6903;DHT22;20232;49.408;8.702;2023-02-21T08:21:37;5.80;99.90
6903;DHT22;20232;49.408;8.702;2023-02-21T08:24:03;5.90;99.90
6903;DHT22;20232;49.408;8.702;2023-02-21T08:26:29;5.90;99.90
6903;DHT22;20232;49.408;8.702;2023-02-21T08:28:54;5.90;99.90
6903;DHT22;20232;49.408;8.702;2023-02-21T08:31:20;5.90;99.90
6903;DHT22;20232;49.408;8.702;2023-02-21T08:33:45;6.00;99.90
6903;DHT22;20232;49.408;8.702;2023-02-21T08:36:11;6.10;99.90
6903;DHT22;20232;49.408;8.702;2023-02-21T08:38:37;6.10;99.90
6903;DHT22;20232;49.408;8.702;2023-02-21T08:41:04;6.10;99.90
6903;DHT22;20232;49.408;8.702;2023-02-21T08:43:31;6.10;99.90
6903;DHT22;20232;49.408;8.702;2023-02-21T08:45:56;6.20;99.90
6903;DHT22;20232;49.408;8.702;2023-02-21T08:48:22;6.20;99.90
6903;DHT22;20232;49.408;8.702;2023-02-21T08:50:47;6.30;99.90
6903;DHT22;20232;49.408;8.702;2023-02-21T08:53:13;6.30;99.90
6903;DHT22;20232;49.408;8.702;2023-02-21T08:55:39;6.40;99.90
6903;DHT22;20232;49.408;8.702;2023-02-21T08:58:04;6.40;99.90
6903;DHT22;20232;49.408;8.702;2023-02-21T09:00:31;6.50;99.90
6903;DHT22;20232;49.408;8.702;2023-02-21T09:02:57;6.50;99.90
6903;DHT22;20232;49.408;8.702;2023-02-21T09:05:28;6.60;99.90
6903;DHT22;20232;49.408;8.702;2023-02-21T09:07:56;6.70;99.90
6903;DHT22;20232;49.408;8.702;2023-02-21T09:10:30;6.70;99.90
6903;DHT22;20232;49.408;8.702;2023-02-21T09:12:58;6.70;99.90
6903;DHT22;20232;49.408;8.702;2023-02-21T09:15:24;6.70;99.90
6903;DHT22;20232;49.408;8.702;2023-02-21T09:17:50;6.80;99.90
6903;DHT22;20232;49.408;8.702;2023-02-21T09:20:18;6.90;99.90
6903;DHT22;20232;49.408;8.702;2023-02-21T09:22:44;7.00;99.90
6903;DHT22;20232;49.408;8.702;2023-02-21T09:25:10;7.10;99.90
6903;DHT22;20232;49.408;8.702;2023-02-21T09:27:38;7.30;99.90
6903;DHT22;20232;49.408;8.702;2023-02-21T09:30:10;7.40;99.90
6903;DHT22;20232;49.408;8.702;2023-02-21T09:32:37;7.50;99.90
6903;DHT22;20232;49.408;8.702;2023-02-21T09:35:02;7.50;99.90
6903;DHT22;20232;49.408;8.702;2023-02-21T09:37:28;7.60;99.90
6903;DHT22;20232;49.408;8.702;2023-02-21T09:39:54;7.70;99.90
6903;DHT22;20232;49.408;8.702;2023-02-21T09:42:24;7.70;99.90
6903;DHT22;20232;49.408;8.702;2023-02-21T09:44:52;7.80;99.90
6903;DHT22;20232;49.408;8.702;2023-02-21T09:47:26;7.90;99.90
6903;DHT22;20232;49.408;8.702;2023-02-21T09:49:58;8.10;99.90
6903;DHT22;20232;49.408;8.702;2023-02-21T09:52:31;8.30;99.90
6903;DHT22;20232;49.408;8.702;2023-02-21T09:55:00;8.50;99.90
6903;DHT22;20232;49.408;8.702;2023-02-21T09:57:27;8.70;99.90
6903;DHT22;20232;49.408;8.702;2023-02-21T09:59:53;9.00;99.90
6903;DHT22;20232;49.408;8.702;2023-02-21T10:02:39;9.30;99.90
6903;DHT22;20232;49.408;8.702;2023-02-21T10:05:30;9.50;99.90
6903;DHT22;20232;49.408;8.702;2023-02-21T10:10:34;10.20;99.90
6903;DHT22;20232;49.408;8.702;2023-02-21T10:13:19;10.40;99.90
6903;DHT22;20232;49.408;8.702;2023-02-21T10:18:31;11.00;99.90
6903;DHT22;20232;49.408;8.702;2023-02-21T10:21:00;11.10;99.90
6903;DHT22;20232;49.408;8.702;2023-02-21T10:23:44;11.30;99.90
6903;DHT22;20232;49.408;8.702;2023-02-21T10:26:20;11.20;99.90
6903;DHT22;20232;49.408;8.702;2023-02-21T10:28:48;11.10;99.90
6903;DHT22;20232;49.408;8.702;2023-02-21T10:31:35;11.10;99.90
6903;DHT22;20232;49.408;8.702;2023-02-21T10:34:03;11.20;99.90
6903;DHT22;20232;49.408;8.702;2023-02-21T10:36:30;11.20;99.90
6903;DHT22;20232;49.408;8.702;2023-02-21T10:38:59;11.30;99.90
6903;DHT22;20232;49.408;8.702;2023-02-21T10:41:29;11.60;99.90
6903;DHT22;20232;49.408;8.702;2023-02-21T10:44:03;11.70;99.90
6903;DHT22;20232;49.408;8.702;2023-02-21T10:46:38;11.70;99.90
6903;DHT22;20232;49.408;8.702;2023-02-21T10:52:11;11.70;99.90
6903;DHT22;20232;49.408;8.702;2023-02-21T10:54:37;11.50;99.90
6903;DHT22;20232;49.408;8.702;2023-02-21T10:57:06;11.60;99.90
6903;DHT22;20232;49.408;8.702;2023-02-21T10:59:37;12.00;99.90
6903;DHT22;20232;49.408;8.702;2023-02-21T11:02:42;12.40;99.90
6903;DHT22;20232;49.408;8.702;2023-02-21T11:05:18;12.80;99.90
6903;DHT22;20232;49.408;8.702;2023-02-21T11:07:59;13.20;99.90
6903;DHT22;20232;49.408;8.702;2023-02-21T11:10:40;13.40;99.90
6903;DHT22;20232;49.408;8.702;2023-02-21T11:13:15;13.80;99.90
6903;DHT22;20232;49.408;8.702;2023-02-21T11:15:43;14.10;99.90
6903;DHT22;20232;49.408;8.702;2023-02-21T11:18:22;14.60;99.90
6903;DHT22;20232;49.408;8.702;2023-02-21T11:20:52;14.80;99.90
6903;DHT22;20232;49.408;8.702;2023-02-21T11:23:24;15.00;99.90
6903;DHT22;20232;49.408;8.702;2023-02-21T11:25:57;15.20;99.90
6903;DHT22;20232;49.408;8.702;2023-02-21T11:28:24;15.40;99.90
6903;DHT22;20232;49.408;8.702;2023-02-21T11:33:27;15.40;99.90
6903;DHT22;20232;49.408;8.702;2023-02-21T11:36:16;15.20;99.90
6903;DHT22;20232;49.408;8.702;2023-02-21T11:41:22;15.20;99.90
6903;DHT22;20232;49.408;8.702;2023-02-21T11:43:52;15.20;99.90
6903;DHT22;20232;49.408;8.702;2023-02-21T11:46:47;15.30;99.90
6903;DHT22;20232;49.408;8.702;2023-02-21T11:52:02;15.60;99.90
6903;DHT22;20232;49.408;8.702;2023-02-21T11:54:29;15.60;99.90
6903;DHT22;20232;49.408;8.702;2023-02-21T11:59:50;15.50;99.90
6903;DHT22;20232;49.408;8.702;2023-02-21T12:02:49;15.60;99.90
6903;DHT22;20232;49.408;8.702;2023-02-21T12:08:35;16.00;99.90
6903;DHT22;20232;49.408;8.702;2023-02-21T12:16:56;16.40;99.90
6903;DHT22;20232;49.408;8.702;2023-02-21T12:25:10;16.90;99.90
6903;DHT22;20232;49.408;8.702;2023-02-21T12:28:10;16.80;99.90
6903;DHT22;20232;49.408;8.702;2023-02-21T12:36:00;17.30;99.90
6903;DHT22;20232;49.408;8.702;2023-02-21T12:38:52;17.40;99.90
6903;DHT22;20232;49.408;8.702;2023-02-21T12:46:44;18.30;99.90
6903;DHT22;20232;49.408;8.702;2023-02-21T12:49:19;18.50;99.90
6903;DHT22;20232;49.408;8.702;2023-02-21T12:52:01;18.80;99.90
6903;DHT22;20232;49.408;8.702;2023-02-21T12:55:32;18.80;99.90
6903;DHT22;20232;49.408;8.702;2023-02-21T13:00:17;18.90;99.90
6903;DHT22;20232;49.408;8.702;2023-02-21T13:03:08;19.10;99.80
6903;DHT22;20232;49.408;8.702;2023-02-21T13:05:39;19.00;96.90
6903;DHT22;20232;49.408;8.702;2023-02-21T13:08:20;19.20;96.20
6903;DHT22;20232;49.408;8.702;2023-02-21T13:13:23;19.50;94.40
6903;DHT22;20232;49.408;8.702;2023-02-21T13:15:50;19.70;94.80
6903;DHT22;20232;49.408;8.702;2023-02-21T13:18:25;19.60;93.20
6903;DHT22;20232;49.408;8.702;2023-02-21T13:21:22;19.50;93.00
6903;DHT22;20232;49.408;8.702;2023-02-21T13:23:58;19.40;93.90
6903;DHT22;20232;49.408;8.702;2023-02-21T13:29:36;19.50;91.50
6903;DHT22;20232;49.408;8.702;2023-02-21T13:32:12;19.40;91.60
6903;DHT22;20232;49.408;8.702;2023-02-21T13:34:43;19.50;91.50
6903;DHT22;20232;49.408;8.702;2023-02-21T13:37:17;19.50;90.90
6903;DHT22;20232;49.408;8.702;2023-02-21T13:39:46;19.60;90.60
6903;DHT22;20232;49.408;8.702;2023-02-21T13:42:20;19.90;91.50
6903;DHT22;20232;49.408;8.702;2023-02-21T13:45:09;20.10;91.60
6903;DHT22;20232;49.408;8.702;2023-02-21T13:58:34;20.10;90.50
6903;DHT22;20232;49.408;8.702;2023-02-21T14:01:19;20.10;89.90
6903;DHT22;20232;49.408;8.702;2023-02-21T14:03:47;20.10;88.50
6903;DHT22;20232;49.408;8.702;2023-02-21T14:08:54;20.20;86.40
6903;DHT22;20232;49.408;8.702;2023-02-21T14:11:25;20.20;87.20
6903;DHT22;20232;49.408;8.702;2023-02-21T14:14:05;20.40;86.00
6903;DHT22;20232;49.408;8.702;2023-02-21T14:17:01;20.40;87.60
6903;DHT22;20232;49.408;8.702;2023-02-21T14:19:48;20.20;86.70
6903;DHT22;20232;49.408;8.702;2023-02-21T14:22:16;20.00;82.90
6903;DHT22;20232;49.408;8.702;2023-02-21T14:24:50;20.10;85.10
6903;DHT22;20232;49.408;8.702;2023-02-21T14:32:41;19.70;87.10
6903;DHT22;20232;49.408;8.702;2023-02-21T14:40:35;19.80;86.40
6903;DHT22;20232;49.408;8.702;2023-02-21T14:43:28;19.70;81.80
6903;DHT22;20232;49.408;8.702;2023-02-21T14:51:53;19.70;86.60
6903;DHT22;20232;49.408;8.702;2023-02-21T14:54:50;19.80;84.50
6903;DHT22;20232;49.408;8.702;2023-02-21T14:57:59;19.90;86.40
6903;DHT22;20232;49.408;8.702;2023-02-21T15:00:49;19.60;88.40
6903;DHT22;20232;49.408;8.702;2023-02-21T15:03:27;19.60;86.80
6903;DHT22;20232;49.408;8.702;2023-02-21T15:06:05;19.30;81.60
6903;DHT22;20232;49.408;8.702;2023-02-21T15:08:46;19.30;84.10
6903;DHT22;20232;49.408;8.702;2023-02-21T15:11:32;19.20;85.10
6903;DHT22;20232;49.408;8.702;2023-02-21T15:14:20;19.20;86.50
6903;DHT22;20232;49.408;8.702;2023-02-21T15:17:11;19.40;86.60
6903;DHT22;20232;49.408;8.702;2023-02-21T15:19:37;19.00;85.00
6903;DHT22;20232;49.408;8.702;2023-02-21T15:22:24;18.60;87.80
6903;DHT22;20232;49.408;8.702;2023-02-21T15:24:57;18.70;89.40
6903;DHT22;20232;49.408;8.702;2023-02-21T15:27:23;18.60;89.40
6903;DHT22;20232;49.408;8.702;2023-02-21T15:30:05;18.60;89.40
6903;DHT22;20232;49.408;8.702;2023-02-21T15:32:33;18.30;90.00
6903;DHT22;20232;49.408;8.702;2023-02-21T15:34:59;17.80;90.70
6903;DHT22;20232;49.408;8.702;2023-02-21T15:37:28;17.60;91.00
6903;DHT22;20232;49.408;8.702;2023-02-21T15:40:03;17.50;90.80
6903;DHT22;20232;49.408;8.702;2023-02-21T15:42:38;17.40;91.90
6903;DHT22;20232;49.408;8.702;2023-02-21T15:45:08;17.30;91.90
6903;DHT22;20232;49.408;8.702;2023-02-21T15:47:35;16.90;91.90
6903;DHT22;20232;49.408;8.702;2023-02-21T15:50:42;16.60;92.10
6903;DHT22;20232;49.408;8.702;2023-02-21T15:53:15;16.70;92.00
6903;DHT22;20232;49.408;8.702;2023-02-21T15:55:41;16.60;92.60
6903;DHT22;20232;49.408;8.702;2023-02-21T16:00:37;16.20;92.80
6903;DHT22;20232;49.408;8.702;2023-02-21T16:06:14;15.40;94.20
6903;DHT22;20232;49.408;8.702;2023-02-21T16:08:52;14.90;94.90
6903;DHT22;20232;49.408;8.702;2023-02-21T16:11:24;14.50;95.50
6903;DHT22;20232;49.408;8.702;2023-02-21T16:13:50;14.20;96.00
6903;DHT22;20232;49.408;8.702;2023-02-21T16:16:16;14.00;96.80
6903;DHT22;20232;49.408;8.702;2023-02-21T16:18:41;13.80;98.20
6903;DHT22;20232;49.408;8.702;2023-02-21T16:21:20;13.50;98.60
6903;DHT22;20232;49.408;8.702;2023-02-21T16:23:46;13.20;99.30
6903;DHT22;20232;49.408;8.702;2023-02-21T16:28:39;12.80;99.90
6903;DHT22;20232;49.408;8.702;2023-02-21T16:31:06;12.70;99.90
6903;DHT22;20232;49.408;8.702;2023-02-21T16:33:33;12.70;99.90
6903;DHT22;20232;49.408;8.702;2023-02-21T16:36:04;12.60;99.90
6903;DHT22;20232;49.408;8.702;2023-02-21T16:38:31;12.50;99.90
6903;DHT22;20232;49.408;8.702;2023-02-21T16:40:56;12.40;99.90
6903;DHT22;20232;49.408;8.702;2023-02-21T16:43:27;12.60;97.10
6903;DHT22;20232;49.408;8.702;2023-02-21T16:45:57;12.90;97.10
6903;DHT22;20232;49.408;8.702;2023-02-21T16:48:28;12.90;99.20
6903;DHT22;20232;49.408;8.702;2023-02-21T16:51:01;12.60;99.90
6903;DHT22;20232;49.408;8.702;2023-02-21T16:53:28;12.40;99.90
6903;DHT22;20232;49.408;8.702;2023-02-21T16:55:54;12.20;99.90
6903;DHT22;20232;49.408;8.702;2023-02-21T16:58:31;12.10;98.70
6903;DHT22;20232;49.408;8.702;2023-02-21T17:01:16;12.10;99.90
6903;DHT22;20232;49.408;8.702;2023-02-21T17:03:42;12.10;99.90
6903;DHT22;20232;49.408;8.702;2023-02-21T17:06:16;12.10;99.90
6903;DHT22;20232;49.408;8.702;2023-02-21T17:08:43;11.90;99.90
6903;DHT22;20232;49.408;8.702;2023-02-21T17:11:08;11.80;99.90
6903;DHT22;20232;49.408;8.702;2023-02-21T17:13:34;12.00;99.90
6903;DHT22;20232;49.408;8.702;2023-02-21T17:15:59;12.00;99.90
6903;DHT22;20232;49.408;8.702;2023-02-21T17:18:25;12.00;99.70
6903;DHT22;20232;49.408;8.702;2023-02-21T17:20:54;12.00;99.90
6903;DHT22;20232;49.408;8.702;2023-02-21T17:23:19;11.90;99.90
6903;DHT22;20232;49.408;8.702;2023-02-21T17:25:45;11.90;99.80
6903;DHT22;20232;49.408;8.702;2023-02-21T17:28:10;11.90;99.90
6903;DHT22;20232;49.408;8.702;2023-02-21T17:30:36;11.90;99.90
6903;DHT22;20232;49.408;8.702;2023-02-21T17:33:01;11.80;99.90
6903;DHT22;20232;49.408;8.702;2023-02-21T17:35:27;11.80;99.90
6903;DHT22;20232;49.408;8.702;2023-02-21T17:37:53;11.70;99.90
6903;DHT22;20232;49.408;8.702;2023-02-21T17:40:20;11.70;99.90
6903;DHT22;20232;49.408;8.702;2023-02-21T17:42:46;11.60;99.90
6903;DHT22;20232;49.408;8.702;2023-02-21T17:45:15;11.50;99.90
6903;DHT22;20232;49.408;8.702;2023-02-21T17:47:41;11.50;99.90
6903;DHT22;20232;49.408;8.702;2023-02-21T17:50:07;11.40;99.90
6903;DHT22;20232;49.408;8.702;2023-02-21T17:52:33;11.30;99.90
6903;DHT22;20232;49.408;8.702;2023-02-21T17:54:59;11.30;99.90
6903;DHT22;20232;49.408;8.702;2023-02-21T17:57:27;11.20;99.90
6903;DHT22;20232;49.408;8.702;2023-02-21T17:59:54;11.20;99.90
6903;DHT22;20232;49.408;8.702;2023-02-21T18:02:19;11.10;99.90
6903;DHT22;20232;49.408;8.702;2023-02-21T18:04:45;11.10;99.90
6903;DHT22;20232;49.408;8.702;2023-02-21T18:07:13;10.90;99.90
6903;DHT22;20232;49.408;8.702;2023-02-21T18:09:38;11.00;99.90
6903;DHT22;20232;49.408;8.702;2023-02-21T18:12:04;11.00;99.90
6903;DHT22;20232;49.408;8.702;2023-02-21T18:14:30;11.00;99.90
6903;DHT22;20232;49.408;8.702;2023-02-21T18:16:56;11.00;99.90
6903;DHT22;20232;49.408;8.702;2023-02-21T18:19:23;10.90;99.90
6903;DHT22;20232;49.408;8.702;2023-02-21T18:21:48;10.90;99.90
6903;DHT22;20232;49.408;8.702;2023-02-21T18:24:14;10.80;99.90
6903;DHT22;20232;49.408;8.702;2023-02-21T18:26:40;10.70;99.90
6903;DHT22;20232;49.408;8.702;2023-02-21T18:29:07;10.70;99.90
6903;DHT22;20232;49.408;8.702;2023-02-21T18:31:33;10.60;99.90
6903;DHT22;20232;49.408;8.702;2023-02-21T18:34:00;10.60;99.90
6903;DHT22;20232;49.408;8.702;2023-02-21T18:36:26;10.50;99.90
6903;DHT22;20232;49.408;8.702;2023-02-21T18:38:52;10.50;99.90
6903;DHT22;20232;49.408;8.702;2023-02-21T18:41:19;10.40;99.90
6903;DHT22;20232;49.408;8.702;2023-02-21T18:43:45;10.30;99.90
6903;DHT22;20232;49.408;8.702;2023-02-21T18:46:14;10.20;99.90
6903;DHT22;20232;49.408;8.702;2023-02-21T18:48:44;10.10;99.90
6903;DHT22;20232;49.408;8.702;2023-02-21T18:51:12;10.10;99.90
6903;DHT22;20232;49.408;8.702;2023-02-21T18:53:38;10.10;99.90
6903;DHT22;20232;49.408;8.702;2023-02-21T18:56:08;10.10;99.90
6903;DHT22;20232;49.408;8.702;2023-02-21T18:58:35;10.10;99.90
6903;DHT22;20232;49.408;8.702;2023-02-21T19:01:00;10.00;99.90
6903;DHT22;20232;49.408;8.702;2023-02-21T19:03:26;9.90;99.90
6903;DHT22;20232;49.408;8.702;2023-02-21T19:05:51;9.90;99.90
6903;DHT22;20232;49.408;8.702;2023-02-21T19:08:18;9.80;99.90
6903;DHT22;20232;49.408;8.702;2023-02-21T19:10:45;9.80;99.90
6903;DHT22;20232;49.408;8.702;2023-02-21T19:13:11;9.80;99.90
6903;DHT22;20232;49.408;8.702;2023-02-21T19:15:37;9.70;99.90
6903;DHT22;20232;49.408;8.702;2023-02-21T19:18:02;9.70;99.90
6903;DHT22;20232;49.408;8.702;2023-02-21T19:20:28;9.70;99.90
6903;DHT22;20232;49.408;8.702;2023-02-21T19:22:53;9.60;99.90
6903;DHT22;20232;49.408;8.702;2023-02-21T19:25:21;9.50;99.90
6903;DHT22;20232;49.408;8.702;2023-02-21T19:27:50;9.40;99.90
6903;DHT22;20232;49.408;8.702;2023-02-21T19:30:17;9.40;99.90
6903;DHT22;20232;49.408;8.702;2023-02-21T19:32:44;9.30;99.90
6903;DHT22;20232;49.408;8.702;2023-02-21T19:35:10;9.30;99.90
6903;DHT22;20232;49.408;8.702;2023-02-21T19:37:35;9.30;99.90
6903;DHT22;20232;49.408;8.702;2023-02-21T19:40:03;9.20;99.90
6903;DHT22;20232;49.408;8.702;2023-02-21T19:42:32;9.20;99.90
6903;DHT22;20232;49.408;8.702;2023-02-21T19:44:58;9.20;99.90
6903;DHT22;20232;49.408;8.702;2023-02-21T19:47:23;9.00;99.90
6903;DHT22;20232;49.408;8.702;2023-02-21T19:49:49;9.00;99.90
6903;DHT22;20232;49.408;8.702;2023-02-21T19:52:14;8.90;99.90
6903;DHT22;20232;49.408;8.702;2023-02-21T19:54:40;8.90;99.90
6903;DHT22;20232;49.408;8.702;2023-02-21T19:57:06;8.90;99.90
6903;DHT22;20232;49.408;8.702;2023-02-21T19:59:31;8.80;99.90
6903;DHT22;20232;49.408;8.702;2023-02-21T20:01:58;8.80;99.90
6903;DHT22;20232;49.408;8.702;2023-02-21T20:04:24;8.80;99.90
6903;DHT22;20232;49.408;8.702;2023-02-21T20:06:54;8.80;99.90
6903;DHT22;20232;49.408;8.702;2023-02-21T20:09:20;8.80;99.90
6903;DHT22;20232;49.408;8.702;2023-02-21T20:11:45;8.80;99.90
6903;DHT22;20232;49.408;8.702;2023-02-21T20:14:11;8.90;99.90
6903;DHT22;20232;49.408;8.702;2023-02-21T20:16:39;8.90;99.90
6903;DHT22;20232;49.408;8.702;2023-02-21T20:19:05;8.90;99.90
6903;DHT22;20232;49.408;8.702;2023-02-21T20:21:32;8.90;99.90
6903;DHT22;20232;49.408;8.702;2023-02-21T20:23:58;8.80;99.90
6903;DHT22;20232;49.408;8.702;2023-02-21T20:26:25;8.80;99.90
6903;DHT22;20232;49.408;8.702;2023-02-21T20:28:52;8.70;99.90
6903;DHT22;20232;49.408;8.702;2023-02-21T20:31:19;8.60;99.90
6903;DHT22;20232;49.408;8.702;2023-02-21T20:33:46;8.50;99.90
6903;DHT22;20232;49.408;8.702;2023-02-21T20:36:12;8.40;99.90
6903;DHT22;20232;49.408;8.702;2023-02-21T20:38:38;8.40;99.90
6903;DHT22;20232;49.408;8.702;2023-02-21T20:41:09;8.40;99.90
6903;DHT22;20232;49.408;8.702;2023-02-21T20:43:39;8.40;99.90
6903;DHT22;20232;49.408;8.702;2023-02-21T20:46:05;8.40;99.90
6903;DHT22;20232;49.408;8.702;2023-02-21T20:48:30;8.40;99.90
6903;DHT22;20232;49.408;8.702;2023-02-21T20:50:57;8.40;99.90
6903;DHT22;20232;49.408;8.702;2023-02-21T20:53:25;8.40;99.90
6903;DHT22;20232;49.408;8.702;2023-02-21T20:55:51;8.40;99.90
6903;DHT22;20232;49.408;8.702;2023-02-21T20:58:19;8.40;99.90
6903;DHT22;20232;49.408;8.702;2023-02-21T21:00:46;8.20;99.90
6903;DHT22;20232;49.408;8.702;2023-02-21T21:03:12;8.10;99.90
6903;DHT22;20232;49.408;8.702;2023-02-21T21:05:40;8.00;99.90
6903;DHT22;20232;49.408;8.702;2023-02-21T21:08:07;7.90;99.90
6903;DHT22;20232;49.408;8.702;2023-02-21T21:10:33;7.90;99.90
6903;DHT22;20232;49.408;8.702;2023-02-21T21:12:59;7.80;99.90
6903;DHT22;20232;49.408;8.702;2023-02-21T21:15:26;7.90;99.90
6903;DHT22;20232;49.408;8.702;2023-02-21T21:17:51;8.00;99.90
6903;DHT22;20232;49.408;8.702;2023-02-21T21:20:19;8.00;99.90
6903;DHT22;20232;49.408;8.702;2023-02-21T21:22:46;8.00;99.90
6903;DHT22;20232;49.408;8.702;2023-02-21T21:25:12;8.00;99.90
6903;DHT22;20232;49.408;8.702;2023-02-21T21:27:40;8.00;99.90
6903;DHT22;20232;49.408;8.702;2023-02-21T21:30:06;7.90;99.90
6903;DHT22;20232;49.408;8.702;2023-02-21T21:32:33;7.90;99.90
6903;DHT22;20232;49.408;8.702;2023-02-21T21:34:59;7.80;99.90
6903;DHT22;20232;49.408;8.702;2023-02-21T21:37:29;7.80;99.90
6903;DHT22;20232;49.408;8.702;2023-02-21T21:39:55;7.70;99.90
6903;DHT22;20232;49.408;8.702;2023-02-21T21:42:24;7.60;99.90
6903;DHT22;20232;49.408;8.702;2023-02-21T21:44:51;7.60;99.90
6903;DHT22;20232;49.408;8.702;2023-02-21T21:47:24;7.50;99.90
6903;DHT22;20232;49.408;8.702;2023-02-21T21:49:50;7.50;99.90
6903;DHT22;20232;49.408;8.702;2023-02-21T21:52:17;7.40;99.90
6903;DHT22;20232;49.408;8.702;2023-02-21T21:54:43;7.40;99.90
6903;DHT22;20232;49.408;8.702;2023-02-21T21:57:10;7.40;99.90
6903;DHT22;20232;49.408;8.702;2023-02-21T21:59:37;7.40;99.90
6903;DHT22;20232;49.408;8.702;2023-02-21T22:02:05;7.30;99.90
6903;DHT22;20232;49.408;8.702;2023-02-21T22:04:37;7.30;99.90
6903;DHT22;20232;49.408;8.702;2023-02-21T22:07:03;7.30;99.90
6903;DHT22;20232;49.408;8.702;2023-02-21T22:09:29;7.30;99.90
6903;DHT22;20232;49.408;8.702;2023-02-21T22:11:56;7.30;99.90
6903;DHT22;20232;49.408;8.702;2023-02-21T22:14:22;7.30;99.90
6903;DHT22;20232;49.408;8.702;2023-02-21T22:16:49;7.30;99.90
6903;DHT22;20232;49.408;8.702;2023-02-21T22:19:15;7.30;99.90
6903;DHT22;20232;49.408;8.702;2023-02-21T22:21:42;7.30;99.90
6903;DHT22;20232;49.408;8.702;2023-02-21T22:24:09;7.30;99.90
6903;DHT22;20232;49.408;8.702;2023-02-21T22:26:35;7.30;99.90
6903;DHT22;20232;49.408;8.702;2023-02-21T22:29:07;7.30;99.90
6903;DHT22;20232;49.408;8.702;2023-02-21T22:31:33;7.30;99.90
6903;DHT22;20232;49.408;8.702;2023-02-21T22:33:59;7.20;99.90
6903;DHT22;20232;49.408;8.702;2023-02-21T22:36:27;7.20;99.90
6903;DHT22;20232;49.408;8.702;2023-02-21T22:38:53;7.20;99.90
6903;DHT22;20232;49.408;8.702;2023-02-21T22:41:28;7.20;99.90